Time;durP1;ratioP1;P1;durP2;ratioP2;P2;SDS_P1;SDS_P2;PMS_P1;PMS_P2;Temp;Humidity;BMP_temperature;BMP_pressure;BME280_temperature;BME280_humidity;BME280_pressure;Samples;Min_cycle;Max_cycle;Signal;HPM_P1;HPM_P2
2022/12/20 00:00:15;;;;;;;3.00;1.63;;;;;;;9.19;100.00;101376.34;5161579;27;20374;-37
2022/12/20 00:02:40;;;;;;;3.90;1.50;;;;;;;9.23;100.00;101377.59;5161494;27;20019;-37
2022/12/20 00:05:06;;;;;;;3.07;1.67;;;;;;;9.22;100.00;101369.69;5161095;27;20019;-36
2022/12/20 00:07:31;;;;;;;4.15;2.00;;;;;;;9.24;100.00;101368.47;5161452;27;20023;-36
2022/12/20 00:09:57;;;;;;;2.95;1.70;;;;;;;9.33;100.00;101382.56;5161672;27;20486;-37
2022/12/20 00:12:22;;;;;;;3.37;1.87;;;;;;;9.37;100.00;101382.97;5161322;27;20347;-36
2022/12/20 00:14:48;;;;;;;3.28;1.75;;;;;;;9.42;100.00;101375.06;5161895;27;20461;-38
2022/12/20 00:17:13;;;;;;;2.90;1.57;;;;;;;9.36;100.00;101360.53;5160931;27;20023;-37
2022/12/20 00:19:38;;;;;;;2.63;1.57;;;;;;;9.40;100.00;101372.59;5161012;27;20101;-37
2022/12/20 00:22:04;;;;;;;3.67;1.73;;;;;;;9.44;100.00;101365.72;5160963;27;20256;-37
2022/12/20 00:24:29;;;;;;;2.97;2.07;;;;;;;9.48;100.00;101369.66;5160655;27;20026;-37
2022/12/20 00:26:54;;;;;;;3.30;1.57;;;;;;;9.42;100.00;101353.47;5161044;27;20130;-37
2022/12/20 00:29:20;;;;;;;3.53;1.73;;;;;;;9.51;100.00;101358.44;5160789;27;20469;-37
2022/12/20 00:31:45;;;;;;;3.77;1.83;;;;;;;9.53;100.00;101355.53;5160557;27;20071;-37
2022/12/20 00:34:10;;;;;;;3.97;1.77;;;;;;;9.48;100.00;101364.28;5160954;27;20022;-37
2022/12/20 00:36:38;;;;;;;4.17;2.20;;;;;;;9.44;100.00;101333.34;5160835;27;20026;-37
2022/12/20 00:39:04;;;;;;;2.85;1.60;;;;;;;9.62;100.00;101350.75;5161398;27;20050;-37
2022/12/20 00:41:32;;;;;;;3.60;2.08;;;;;;;9.59;100.00;101351.16;5156972;27;20091;-37
2022/12/20 00:43:57;;;;;;;5.82;1.88;;;;;;;9.63;100.00;101341.59;5139735;27;20033;-37
2022/12/20 00:46:24;;;;;;;2.78;1.77;;;;;;;9.64;100.00;101335.16;5157131;27;20026;-37
2022/12/20 00:48:50;;;;;;;3.78;2.00;;;;;;;9.68;100.00;101333.69;5157672;27;20096;-37
2022/12/20 00:51:17;;;;;;;;;;;;;;;9.68;100.00;101333.69;5158315;27;20589;-37
2022/12/20 00:53:43;;;;;;;3.30;2.28;;;;;;;9.68;100.00;101329.09;5157578;27;19930;-37
2022/12/20 00:56:09;;;;;;;4.13;1.80;;;;;;;9.63;100.00;101328.09;5157035;27;20038;-37
2022/12/20 00:58:36;;;;;;;4.13;2.13;;;;;;;9.68;100.00;101330.97;5157772;27;20052;-37
2022/12/20 01:01:03;;;;;;;4.03;2.17;;;;;;;9.71;100.00;101341.34;5157120;27;20022;-37
2022/12/20 01:03:29;;;;;;;4.57;2.08;;;;;;;9.71;100.00;101333.25;5157589;27;20086;-37
2022/12/20 01:05:57;;;;;;;6.18;2.42;;;;;;;9.73;100.00;101337.41;5156716;27;20030;-37
2022/12/20 01:08:23;;;;;;;4.82;2.13;;;;;;;9.76;100.00;101344.22;5157010;27;20034;-37
2022/12/20 01:10:59;;;;;;;;;;;;;;;9.76;100.00;101345.09;5157774;27;20030;-37
2022/12/20 01:13:25;;;;;;;4.03;2.33;;;;;;;9.73;100.00;101340.09;5156939;27;19919;-37
2022/12/20 01:15:50;;;;;;;4.53;2.10;;;;;;;9.74;100.00;101335.53;5157029;27;20118;-37
2022/12/20 01:18:15;;;;;;;5.23;2.23;;;;;;;9.72;100.00;101329.53;5157005;27;20106;-37
2022/12/20 01:20:40;;;;;;;3.77;2.07;;;;;;;9.76;100.00;101349.63;5156768;27;20046;-37
2022/12/20 01:23:06;;;;;;;4.77;2.03;;;;;;;9.66;100.00;101346.56;5156874;27;20396;-37
2022/12/20 01:25:31;;;;;;;3.13;2.03;;;;;;;9.67;100.00;101350.94;5156636;27;20029;-37
2022/12/20 01:27:56;;;;;;;4.07;2.10;;;;;;;9.67;100.00;101350.94;5156707;27;20419;-37
2022/12/20 01:30:22;;;;;;;4.23;1.97;;;;;;;9.59;100.00;101340.34;5156705;27;20432;-37
2022/12/20 01:32:47;;;;;;;4.50;1.90;;;;;;;9.47;100.00;101330.22;5156395;27;20471;-37
2022/12/20 01:35:12;;;;;;;5.97;2.40;;;;;;;9.52;100.00;101356.59;5156572;27;20027;-37
2022/12/20 01:37:38;;;;;;;4.53;2.27;;;;;;;9.41;100.00;101331.03;5156894;27;20153;-37
2022/12/20 01:40:04;;;;;;;5.40;2.70;;;;;;;9.39;100.00;101343.13;5156763;27;20035;-37
2022/12/20 01:42:29;;;;;;;3.85;2.13;;;;;;;9.32;100.00;101337.75;5137403;27;20394;-37
2022/12/20 01:44:57;;;;;;;4.27;2.20;;;;;;;9.26;100.00;101344.78;5156096;27;20027;-37
2022/12/20 01:47:25;;;;;;;4.03;2.10;;;;;;;9.08;100.00;101316.78;5156291;27;20086;-37
2022/12/20 01:49:53;;;;;;;4.60;1.95;;;;;;;9.15;100.00;101336.50;5156295;27;20022;-37
2022/12/20 01:52:42;;;;;;;4.00;2.10;;;;;;;9.11;100.00;101329.88;5155988;27;20027;-37
2022/12/20 01:55:26;;;;;;;3.33;2.25;;;;;;;9.05;100.00;101325.31;5156886;27;20027;-37
2022/12/20 01:57:51;;;;;;;3.35;2.03;;;;;;;8.97;100.00;101312.84;5156116;27;20030;-37
2022/12/20 02:00:17;;;;;;;3.20;2.20;;;;;;;9.00;100.00;101315.97;5156405;27;20026;-37
2022/12/20 02:02:46;;;;;;;3.83;2.20;;;;;;;8.99;100.00;101300.00;5156045;27;20059;-37
2022/12/20 02:05:13;;;;;;;4.72;2.53;;;;;;;9.01;100.00;101304.13;5156252;27;20072;-37
2022/12/20 02:07:40;;;;;;;5.15;2.40;;;;;;;9.00;100.00;101307.88;5156311;27;20031;-37
2022/12/20 02:10:08;;;;;;;5.55;2.60;;;;;;;8.96;100.00;101293.16;5136768;27;20385;-37
2022/12/20 02:12:40;;;;;;;5.70;2.83;;;;;;;9.00;100.00;101291.69;5155803;27;20083;-37
2022/12/20 02:15:26;;;;;;;4.80;2.47;;;;;;;8.94;100.00;101275.53;5137685;27;20034;-37
2022/12/20 02:18:27;;;;;;;5.82;2.55;;;;;;;8.99;100.00;101286.53;5155462;27;20535;-37
2022/12/20 02:21:13;;;;;;;6.18;2.60;;;;;;;8.98;100.00;101285.69;5137577;27;20136;-37
2022/12/20 02:24:01;;;;;;;6.13;2.95;;;;;;;8.98;100.00;101277.59;5156149;27;20098;-37
2022/12/20 02:26:41;;;;;;;5.45;2.58;;;;;;;8.95;100.00;101274.47;5155727;27;20443;-37
2022/12/20 02:29:36;;;;;;;4.72;2.53;;;;;;;8.94;100.00;101260.16;5155576;27;20449;-37
2022/12/20 02:32:01;;;;;;;4.60;2.25;;;;;;;8.98;100.00;101280.28;5155502;27;20377;-37
2022/12/20 02:34:29;;;;;;;3.83;2.10;;;;;;;8.98;100.00;101272.22;5155775;27;20038;-37
2022/12/20 02:36:54;;;;;;;3.38;1.90;;;;;;;8.94;100.00;101259.34;5136867;27;20027;-37
2022/12/20 02:39:22;;;;;;;3.50;1.98;;;;;;;8.94;100.00;101260.16;5136921;27;20569;-37
2022/12/20 02:41:56;;;;;;;3.83;1.75;;;;;;;8.85;100.00;101239.84;5155274;27;20022;-37
2022/12/20 02:47:14;;;;;;;4.03;1.70;;;;;;;8.91;100.00;101249.78;5154994;27;20038;-37
2022/12/20 02:49:41;;;;;;;4.25;1.88;;;;;;;8.96;100.00;101260.78;5155709;27;20035;-37
2022/12/20 02:52:10;;;;;;;2.40;1.60;;;;;;;8.96;100.00;101259.94;5155059;27;20023;-37
2022/12/20 02:54:37;;;;;;;2.70;1.52;;;;;;;8.92;100.00;101240.66;5154762;27;20381;-37
2022/12/20 02:57:31;;;;;;;3.67;1.65;;;;;;;8.99;100.00;101243.34;5154935;27;20387;-37
2022/12/20 03:00:04;;;;;;;3.30;1.75;;;;;;;9.01;100.00;101236.69;5054599;28;20051;-37
2022/12/20 03:03:21;;;;;;;2.63;1.50;;;;;;;9.01;100.00;101243.97;5070614;28;20040;-37
2022/12/20 03:05:21;;;;;;;2.35;1.50;;;;;;;9.08;100.00;101247.50;5071005;28;20424;-37
2022/12/20 03:07:46;;;;;;;3.30;1.50;;;;;;;9.09;100.00;101243.75;5070533;28;20029;-37
2022/12/20 03:10:12;;;;;;;2.67;1.58;;;;;;;9.14;100.00;101232.31;5070661;28;20044;-37
2022/12/20 03:12:37;;;;;;;3.27;1.43;;;;;;;9.14;100.00;101241.25;5070723;28;20029;-37
2022/12/20 03:15:03;;;;;;;2.37;1.33;;;;;;;9.16;100.00;101241.03;5070508;28;20274;-37
2022/12/20 03:17:28;;;;;;;2.22;1.30;;;;;;;9.17;100.00;101248.06;5070403;28;20040;-37
2022/12/20 03:19:54;;;;;;;3.00;1.50;;;;;;;9.10;100.00;101221.13;5053234;28;20048;-37
2022/12/20 03:22:19;;;;;;;3.97;2.10;;;;;;;9.21;100.00;101233.94;5070452;28;20086;-37
2022/12/20 03:24:44;;;;;;;3.33;1.57;;;;;;;9.31;100.00;101238.06;5054106;28;20522;-37
2022/12/20 03:27:10;;;;;;;3.13;1.50;;;;;;;9.37;100.00;101234.50;5070345;28;20143;-37
2022/12/20 03:29:35;;;;;;;4.03;1.50;;;;;;;9.27;100.00;101221.47;5070288;28;20037;-37
2022/12/20 03:32:01;;;;;;;1.90;1.20;;;;;;;9.34;100.00;101233.09;5070254;28;20064;-37
2022/12/20 03:34:26;;;;;;;2.23;1.43;;;;;;;9.33;100.00;101219.81;5071094;28;20040;-37
2022/12/20 03:36:51;;;;;;;3.27;1.37;;;;;;;9.37;100.00;101234.50;5114334;27;20422;-37
2022/12/20 03:39:17;;;;;;;1.97;1.40;;;;;;;9.41;100.00;101227.66;5154302;27;20195;-37
2022/12/20 03:41:42;;;;;;;3.77;1.50;;;;;;;9.42;100.00;101232.84;5154088;27;20359;-37
2022/12/20 03:44:07;;;;;;;2.03;1.50;;;;;;;9.43;100.00;101234.50;5154597;27;20023;-37
2022/12/20 03:46:33;;;;;;;2.00;1.23;;;;;;;9.37;100.00;101227.28;5154421;27;20527;-38
2022/12/20 03:48:58;;;;;;;3.35;1.45;;;;;;;9.47;100.00;101249.25;5136369;27;20029;-37
2022/12/20 03:51:24;;;;;;;2.37;1.20;;;;;;;9.51;100.00;101239.63;5154252;27;20026;-36
2022/12/20 03:53:49;;;;;;;3.27;1.20;;;;;;;9.54;100.00;101244.63;5154401;27;20026;-36
2022/12/20 03:56:14;;;;;;;2.85;1.42;;;;;;;9.63;100.00;101236.28;5154573;27;20034;-36
2022/12/20 03:58:40;;;;;;;2.93;1.43;;;;;;;9.57;100.00;101226.34;5154281;27;20174;-36
2022/12/20 04:01:20;;;;;;;3.57;1.20;;;;;;;9.63;100.00;101236.28;5153929;27;20101;-36
2022/12/20 04:03:45;;;;;;;2.72;1.40;;;;;;;9.67;100.00;101227.53;5135868;27;20038;-36
2022/12/20 04:06:10;;;;;;;1.80;1.27;;;;;;;9.63;100.00;101218.22;5135276;27;20035;-36
2022/12/20 04:08:36;;;;;;;2.73;1.33;;;;;;;9.70;100.00;101223.56;5152560;27;20035;-36
2022/12/20 04:11:16;;;;;;;2.57;1.40;;;;;;;9.72;100.00;101232.31;5154404;27;20018;-37
2022/12/20 04:13:46;;;;;;;2.35;1.30;;;;;;;9.77;100.00;101235.19;5155188;27;20027;-36
2022/12/20 04:16:14;;;;;;;3.28;1.52;;;;;;;9.80;100.00;101226.63;5156456;27;20062;-36
2022/12/20 04:18:40;;;;;;;2.65;1.60;;;;;;;9.82;100.00;101223.72;5157786;27;20466;-36
2022/12/20 04:21:08;;;;;;;3.63;1.60;;;;;;;9.84;100.00;101219.75;5139559;27;20022;-36
2022/12/20 04:23:35;;;;;;;3.25;1.70;;;;;;;9.89;100.00;101225.31;5158550;27;20026;-36
2022/12/20 04:26:02;;;;;;;2.35;1.20;;;;;;;9.92;100.00;101230.31;5157825;27;20102;-36
2022/12/20 04:28:28;;;;;;;2.88;1.58;;;;;;;9.92;100.00;101230.31;5158613;27;20062;-36
2022/12/20 04:30:53;;;;;;;3.97;1.30;;;;;;;9.90;100.00;101221.56;5157928;27;20050;-36
2022/12/20 04:33:19;;;;;;;3.40;1.63;;;;;;;9.95;100.00;101224.44;5158115;27;20426;-36
2022/12/20 04:35:44;;;;;;;2.90;1.30;;;;;;;9.93;100.00;101220.31;5157689;27;20033;-36
2022/12/20 04:38:09;;;;;;;2.97;1.60;;;;;;;9.91;100.00;101215.16;5158108;27;20050;-36
2022/12/20 04:40:34;;;;;;;2.03;1.23;;;;;;;9.92;100.00;101213.28;5157922;27;20035;-36
2022/12/20 04:43:00;;;;;;;2.80;1.40;;;;;;;9.90;100.00;101208.06;5139738;27;20385;-36
2022/12/20 04:45:25;;;;;;;2.60;1.57;;;;;;;9.92;100.00;101213.28;5158053;27;20022;-36
2022/12/20 04:47:51;;;;;;;2.63;1.40;;;;;;;9.93;100.00;101209.53;5139077;27;20023;-36
2022/12/20 04:50:17;;;;;;;2.90;1.67;;;;;;;9.88;100.00;101206.66;5157441;27;20537;-36
2022/12/20 04:55:27;;;;;;;2.58;1.15;;;;;;;9.93;100.00;101207.66;5157848;27;20560;-36
2022/12/20 04:57:53;;;;;;;4.53;1.23;;;;;;;9.93;100.00;101209.53;5157243;27;20062;-36
2022/12/20 05:00:18;;;;;;;4.97;1.73;;;;;;;9.95;100.00;101207.41;5157167;27;20105;-36
2022/12/20 05:02:44;;;;;;;2.35;1.60;;;;;;;9.97;100.00;101206.16;5158164;27;20149;-36
2022/12/20 05:05:09;;;;;;;4.63;1.43;;;;;;;10.00;100.00;101204.88;5157215;27;20459;-36
2022/12/20 05:07:34;;;;;;;2.20;1.57;;;;;;;10.05;100.00;101203.22;5156867;27;20042;-36
2022/12/20 05:10:00;;;;;;;3.00;1.40;;;;;;;10.00;100.00;101194.94;5138519;27;20039;-36
2022/12/20 05:12:25;;;;;;;2.63;1.50;;;;;;;10.00;100.00;101194.94;5157345;27;20054;-36
2022/12/20 05:14:50;;;;;;;3.70;1.53;;;;;;;10.01;100.00;101182.25;5157720;27;20109;-36
2022/12/20 05:17:16;;;;;;;5.33;2.13;;;;;;;10.04;100.00;101184.50;5157194;27;20044;-36
2022/12/20 05:19:41;;;;;;;2.90;1.60;;;;;;;10.06;100.00;101177.03;5156566;27;20054;-36
2022/12/20 05:27:36;;;;;;;2.92;1.40;;;;;;;9.98;100.00;101153.78;5156599;27;20558;-36
2022/12/20 05:30:03;;;;;;;3.20;1.27;;;;;;;10.08;100.00;101161.41;5157374;27;20057;-36
2022/12/20 05:32:29;;;;;;;3.50;1.63;;;;;;;10.00;100.00;101146.31;5156619;27;20029;-36
2022/12/20 05:34:54;;;;;;;2.22;1.42;;;;;;;10.10;100.00;101163.88;5157628;27;20423;-36
2022/12/20 05:37:19;;;;;;;2.77;1.37;;;;;;;10.03;100.00;101155.84;5156089;27;20547;-36
2022/12/20 05:39:44;;;;;;;4.27;1.63;;;;;;;10.02;100.00;101148.78;5157008;27;20050;-36
2022/12/20 05:42:11;;;;;;;4.30;1.60;;;;;;;10.04;100.00;101169.13;5156104;27;20071;-37
2022/12/20 05:44:36;;;;;;;;;;;;;;;10.06;100.00;101148.13;5156613;27;20129;-37
2022/12/20 05:47:01;;;;;;;3.45;1.52;;;;;;;10.07;100.00;101154.34;5156798;27;19911;-36
2022/12/20 05:49:26;;;;;;;2.47;1.23;;;;;;;10.06;100.00;101150.81;5156202;27;20105;-36
2022/12/20 05:51:52;;;;;;;2.50;1.30;;;;;;;10.11;100.00;101147.47;5155922;27;20022;-36
2022/12/20 05:54:17;;;;;;;3.13;1.40;;;;;;;10.06;100.00;101147.28;5156177;27;20084;-36
2022/12/20 05:56:42;;;;;;;2.27;1.30;;;;;;;10.03;100.00;101132.34;5156381;27;20046;-36
2022/12/20 05:59:08;;;;;;;2.10;1.20;;;;;;;10.07;100.00;101138.97;5156619;27;20037;-36
2022/12/20 06:01:33;;;;;;;2.08;1.10;;;;;;;10.01;100.00;101120.94;5156449;27;20030;-36
2022/12/20 06:03:59;;;;;;;2.78;1.40;;;;;;;10.08;100.00;101131.69;5156532;27;20435;-37
2022/12/20 06:06:24;;;;;;;2.30;1.10;;;;;;;10.07;100.00;101135.44;5155911;27;20086;-37
2022/12/20 06:08:50;;;;;;;2.20;1.27;;;;;;;10.09;100.00;101133.31;5156108;27;20060;-37
2022/12/20 06:11:15;;;;;;;2.88;1.38;;;;;;;10.05;100.00;101118.59;5155851;27;20075;-36
2022/12/20 06:13:40;;;;;;;2.60;1.20;;;;;;;10.14;100.00;101108.34;5155909;27;20521;-36
2022/12/20 06:16:06;;;;;;;2.27;1.00;;;;;;;10.12;100.00;101110.47;5155572;27;20673;-36
2022/12/20 06:18:31;;;;;;;2.35;1.30;;;;;;;10.09;100.00;101102.78;5156086;27;20080;-37
2022/12/20 06:20:56;;;;;;;3.17;1.33;;;;;;;10.02;100.00;101094.75;5155442;27;20034;-37
2022/12/20 06:23:22;;;;;;;4.47;1.40;;;;;;;10.10;100.00;101107.13;5155741;27;20019;-36
2022/12/20 06:25:47;;;;;;;1.80;1.20;;;;;;;10.11;100.00;101098.00;5155463;27;20039;-36
2022/12/20 06:28:13;;;;;;;3.03;1.30;;;;;;;10.04;100.00;101090.75;5155318;27;20019;-36
2022/12/20 06:30:38;;;;;;;2.85;1.30;;;;;;;10.10;100.00;101097.16;5156194;27;20033;-37
2022/12/20 06:33:04;;;;;;;4.17;1.90;;;;;;;10.07;100.00;101103.84;5155782;27;20031;-37
2022/12/20 06:35:29;;;;;;;1.80;0.97;;;;;;;10.15;100.00;101115.41;5155323;27;20101;-37
2022/12/20 06:37:55;;;;;;;2.83;1.20;;;;;;;10.12;100.00;101110.47;5155086;27;20073;-37
2022/12/20 06:40:20;;;;;;;2.67;1.38;;;;;;;10.06;100.00;101107.59;5155250;27;20510;-37
2022/12/20 06:42:46;;;;;;;3.00;0.90;;;;;;;10.13;100.00;101122.91;5155834;27;20067;-37
2022/12/20 06:45:11;;;;;;;2.70;1.40;;;;;;;10.07;100.00;101117.34;5155628;27;20074;-37
2022/12/20 06:47:37;;;;;;;3.13;1.13;;;;;;;10.02;100.00;101109.06;5155822;27;20422;-37
2022/12/20 06:50:03;;;;;;;2.60;1.30;;;;;;;10.05;100.00;101122.16;5156013;27;20023;-37
2022/12/20 06:52:29;;;;;;;2.20;1.40;;;;;;;10.08;100.00;101110.06;5155038;27;20446;-37
2022/12/20 06:54:54;;;;;;;2.38;1.30;;;;;;;10.03;100.00;101109.91;5155101;27;20118;-37
2022/12/20 06:57:20;;;;;;;3.33;1.10;;;;;;;10.08;100.00;101110.06;5155121;27;20027;-37
2022/12/20 06:59:45;;;;;;;1.83;1.10;;;;;;;10.07;100.00;101109.25;5155587;27;20351;-37
2022/12/20 07:02:11;;;;;;;2.40;1.30;;;;;;;10.07;100.00;101109.25;5154797;27;20467;-37
2022/12/20 07:04:36;;;;;;;3.67;1.27;;;;;;;10.09;100.00;101105.47;5155409;27;20023;-37
2022/12/20 07:07:02;;;;;;;2.80;1.10;;;;;;;10.10;100.00;101112.53;5154475;27;20027;-37
2022/12/20 07:09:28;;;;;;;4.70;1.30;;;;;;;10.12;100.00;101115.84;5155555;27;20027;-37
2022/12/20 07:11:54;;;;;;;3.20;1.20;;;;;;;10.02;100.00;101094.75;5155513;27;20462;-37
2022/12/20 07:14:19;;;;;;;3.28;1.10;;;;;;;10.13;100.00;101118.34;5155139;27;20527;-37
2022/12/20 07:16:44;;;;;;;3.47;1.10;;;;;;;10.18;100.00;101109.56;5154860;27;20114;-37
2022/12/20 07:19:11;;;;;;;2.07;1.10;;;;;;;10.09;100.00;101095.50;5153455;27;20292;-37
2022/12/20 07:21:37;;;;;;;2.38;1.10;;;;;;;10.16;100.00;101106.28;5154612;27;20083;-37
2022/12/20 07:24:02;;;;;;;2.13;1.25;;;;;;;10.15;100.00;101101.88;5155584;27;20023;-37
2022/12/20 07:26:28;;;;;;;2.38;1.10;;;;;;;10.22;100.00;101114.31;5154681;27;20027;-37
2022/12/20 07:28:53;;;;;;;2.57;1.70;;;;;;;10.14;100.00;101098.34;5154996;27;20475;-37
2022/12/20 07:31:19;;;;;;;1.50;1.00;;;;;;;10.23;100.00;101107.03;5154630;27;20256;-37
2022/12/20 07:33:44;;;;;;;2.17;1.10;;;;;;;10.20;100.00;101092.09;5154501;27;20035;-37
2022/12/20 07:36:11;;;;;;;2.07;1.20;;;;;;;10.22;100.00;101102.66;5154776;27;20034;-37
2022/12/20 07:38:37;;;;;;;2.80;1.10;;;;;;;10.23;100.00;101107.03;5154328;27;20043;-37
2022/12/20 07:41:11;;;;;;;2.08;1.15;;;;;;;10.30;100.00;101113.25;5119183;27;20495;-36
2022/12/20 07:43:37;;;;;;;1.88;1.20;;;;;;;10.27;100.00;101108.25;5154344;27;20022;-37
2022/12/20 07:46:03;;;;;;;2.30;1.35;;;;;;;10.28;100.00;101112.63;5154447;27;20473;-36
2022/12/20 07:48:29;;;;;;;5.43;1.10;;;;;;;10.34;100.00;101114.41;5155467;27;20024;-36
2022/12/20 07:51:12;;;;;;;1.77;1.10;;;;;;;10.34;100.00;101121.72;5157799;27;20018;-37
2022/12/20 07:53:42;;;;;;;1.73;1.05;;;;;;;10.27;100.00;101108.25;5158772;27;20371;-36
2022/12/20 07:56:09;;;;;;;2.70;1.15;;;;;;;10.34;100.00;101136.03;5158826;27;20387;-36
2022/12/20 07:58:39;;;;;;;3.30;1.20;;;;;;;10.33;100.00;101126.28;5140249;27;20026;-36
2022/12/20 08:01:04;;;;;;;2.05;0.98;;;;;;;10.31;100.00;101133.81;5158665;27;20045;-36
2022/12/20 08:03:35;;;;;;;1.80;0.90;;;;;;;10.32;100.00;101138.97;5158775;27;20018;-36
2022/12/20 08:06:04;;;;;;;2.10;1.00;;;;;;;10.29;100.00;101138.59;5158661;27;20510;-37
2022/12/20 08:08:37;;;;;;;2.10;1.10;;;;;;;10.26;100.00;101141.75;5158897;27;20027;-37
2022/12/20 08:11:05;;;;;;;2.50;1.20;;;;;;;10.18;100.00;101126.59;5158687;27;20019;-37
2022/12/20 08:13:32;;;;;;;2.55;1.13;;;;;;;10.20;100.00;101137.19;5158599;27;20419;-37
2022/12/20 08:15:59;;;;;;;2.10;1.00;;;;;;;9.95;100.00;101104.75;5139593;27;20034;-37
2022/12/20 08:18:24;;;;;;;3.28;1.67;;;;;;;10.03;100.00;101129.63;5158476;27;20031;-37
2022/12/20 08:20:49;;;;;;;2.80;1.10;;;;;;;9.99;100.00;101123.00;5158456;27;20018;-37
2022/12/20 08:23:15;;;;;;;2.73;1.30;;;;;;;9.96;100.00;101128.06;5158460;27;20170;-37
2022/12/20 08:25:40;;;;;;;3.60;2.07;;;;;;;9.91;100.00;101126.00;5157725;27;20155;-37
2022/12/20 08:28:06;;;;;;;1.90;1.20;;;;;;;9.91;100.00;101136.00;5158476;27;20460;-37
2022/12/20 08:30:31;;;;;;;3.93;1.90;;;;;;;9.84;100.00;101137.91;5158127;27;20290;-37
2022/12/20 08:32:56;;;;;;;3.40;1.20;;;;;;;9.81;100.00;101131.06;5158818;27;20511;-37
2022/12/20 08:35:22;;;;;;;2.93;1.33;;;;;;;9.82;100.00;101145.41;5139164;27;20026;-37
2022/12/20 08:37:50;;;;;;;3.60;1.10;;;;;;;9.67;100.00;101113.31;5158598;27;20046;-37
2022/12/20 08:40:15;;;;;;;1.83;1.10;;;;;;;9.76;100.00;101136.28;5158492;27;20027;-37
2022/12/20 08:42:41;;;;;;;2.37;1.27;;;;;;;9.71;100.00;101146.91;5158034;27;20026;-37
2022/12/20 08:45:06;;;;;;;1.97;1.00;;;;;;;9.74;100.00;101141.06;5157956;27;20027;-37
2022/12/20 08:47:31;;;;;;;2.90;1.35;;;;;;;9.70;100.00;101139.84;5157990;27;20114;-37
2022/12/20 08:49:57;;;;;;;2.53;1.30;;;;;;;9.70;100.00;101139.84;5157891;27;20038;-37
2022/12/20 08:52:22;;;;;;;2.60;1.07;;;;;;;9.66;100.00;101122.44;5138888;27;20107;-37
2022/12/20 08:54:48;;;;;;;4.20;1.43;;;;;;;9.56;100.00;101120.22;5157567;27;20026;-37
2022/12/20 08:57:13;;;;;;;3.85;1.38;;;;;;;9.64;100.00;101124.53;5157678;27;20030;-37
2022/12/20 08:59:38;;;;;;;2.47;1.00;;;;;;;9.61;100.00;101122.25;5156588;27;20411;-37
2022/12/20 09:02:05;;;;;;;2.47;1.20;;;;;;;9.59;100.00;101122.47;5156687;27;20037;-37
2022/12/20 09:04:30;;;;;;;2.55;1.20;;;;;;;9.61;100.00;101130.34;5157468;27;20075;-37
2022/12/20 09:06:56;;;;;;;3.40;1.23;;;;;;;9.55;100.00;101119.38;5157134;27;20031;-37
2022/12/20 09:09:21;;;;;;;3.83;1.30;;;;;;;9.55;100.00;101119.38;5157230;27;20444;-37
2022/12/20 09:11:46;;;;;;;2.83;1.30;;;;;;;9.49;100.00;101106.75;5157102;27;20291;-37
2022/12/20 09:14:12;;;;;;;2.13;1.20;;;;;;;9.45;100.00;101102.00;5157879;27;20042;-37
2022/12/20 09:16:38;;;;;;;3.25;1.30;;;;;;;9.52;100.00;101114.44;5138456;27;20054;-37
2022/12/20 09:19:04;;;;;;;3.67;1.60;;;;;;;9.50;100.00;101103.00;5157035;27;20498;-37
2022/12/20 09:21:29;;;;;;;2.17;1.23;;;;;;;9.51;100.00;101101.97;5156973;27;20273;-37
2022/12/20 09:23:56;;;;;;;3.67;1.90;;;;;;;9.45;100.00;101092.03;5138489;27;20035;-37
2022/12/20 09:26:22;;;;;;;1.98;1.27;;;;;;;9.54;100.00;101112.34;5156788;27;20038;-37
2022/12/20 09:28:48;;;;;;;2.33;1.30;;;;;;;9.54;100.00;101115.03;5156580;27;20030;-36
2022/12/20 09:31:15;;;;;;;;;;;;;;;9.57;100.00;101116.47;5157410;27;20428;-37
2022/12/20 09:33:41;;;;;;;2.65;1.52;;;;;;;9.52;100.00;101109.03;5157024;27;19989;-36
2022/12/20 09:36:14;;;;;;;3.60;1.50;;;;;;;9.54;100.00;101115.03;5156641;27;20373;-37
2022/12/20 09:38:39;;;;;;;3.00;1.58;;;;;;;9.54;100.00;101112.34;5157472;27;20135;-37
2022/12/20 09:41:07;;;;;;;4.18;1.70;;;;;;;9.54;100.00;101109.63;5157200;27;20438;-37
2022/12/20 09:43:33;;;;;;;2.53;1.63;;;;;;;9.53;100.00;101112.56;5157076;27;20034;-37
2022/12/20 09:46:00;;;;;;;4.00;1.80;;;;;;;9.51;100.00;101110.06;5137946;27;20038;-36
2022/12/20 09:48:38;;;;;;;3.72;2.20;;;;;;;9.53;100.00;101112.56;5156740;27;20023;-37
2022/12/20 09:51:09;;;;;;;2.40;1.80;;;;;;;9.52;100.00;101113.63;5156370;27;20045;-36
2022/12/20 09:53:49;;;;;;;3.13;1.85;;;;;;;9.47;100.00;101095.38;5156104;27;20386;-36
2022/12/20 09:56:26;;;;;;;2.08;1.50;;;;;;;9.55;100.00;101116.69;5156294;27;20173;-36
2022/12/20 09:59:03;;;;;;;2.38;1.55;;;;;;;9.55;100.00;101118.56;5156323;27;20033;-37
2022/12/20 10:01:30;;;;;;;;;;;;;;;9.58;100.00;101103.81;5156926;27;20380;-36
2022/12/20 10:03:57;;;;;;;4.22;2.40;;;;;;;9.57;100.00;101102.16;5156426;27;19997;-36
2022/12/20 10:06:49;;;;;;;5.68;2.03;;;;;;;9.49;100.00;101095.13;5155990;27;20038;-36
2022/12/20 10:09:39;;;;;;;4.07;2.10;;;;;;;9.61;100.00;101106.06;5071964;28;20040;-37
2022/12/20 10:12:30;;;;;;;3.10;2.08;;;;;;;9.65;100.00;101108.09;5071565;28;20123;-37
2022/12/20 10:15:16;;;;;;;3.38;1.80;;;;;;;9.66;100.00;101106.22;5072333;28;20520;-37
2022/12/20 10:18:11;;;;;;;3.10;1.75;;;;;;;9.69;100.00;101101.22;5072083;28;20151;-36
2022/12/20 10:21:01;;;;;;;3.58;1.80;;;;;;;9.69;100.00;101095.00;5071892;28;20049;-36
2022/12/20 10:23:47;;;;;;;2.65;1.67;;;;;;;9.72;100.00;101097.28;5071995;28;20388;-36
2022/12/20 10:26:12;;;;;;;5.15;2.22;;;;;;;9.74;100.00;101092.47;5071580;28;20040;-36
2022/12/20 10:28:39;;;;;;;3.67;2.27;;;;;;;9.75;100.00;101100.34;5071416;28;20028;-36
2022/12/20 10:31:13;;;;;;;3.25;1.70;;;;;;;9.65;100.00;101066.78;5071176;28;20036;-36
2022/12/20 10:33:39;;;;;;;4.45;2.30;;;;;;;9.79;100.00;101095.34;5071375;28;20040;-37
2022/12/20 10:36:20;;;;;;;;;;;;;;;9.83;100.00;101087.63;5071579;28;20127;-37
2022/12/20 10:38:50;;;;;;;3.95;1.65;;;;;;;9.86;100.00;101087.16;5058241;28;19916;-37
2022/12/20 10:41:19;;;;;;;4.82;1.58;;;;;;;9.89;100.00;101090.28;5051683;28;20056;-37
2022/12/20 10:43:48;;;;;;;5.60;2.20;;;;;;;9.90;100.00;101083.81;5051313;28;20103;-37
2022/12/20 10:46:17;;;;;;;3.72;1.70;;;;;;;9.94;100.00;101081.50;5088925;27;20441;-37
2022/12/20 10:48:45;;;;;;;2.30;1.48;;;;;;;9.96;100.00;101084.81;5134625;27;20114;-37
2022/12/20 10:51:14;;;;;;;2.50;1.40;;;;;;;9.94;100.00;101081.50;5134499;27;20050;-37
2022/12/20 10:54:00;;;;;;;3.75;1.92;;;;;;;9.96;100.00;101077.53;5135137;27;20035;-37
2022/12/20 10:56:33;;;;;;;3.10;1.80;;;;;;;9.93;100.00;101083.38;5134256;27;20031;-37
2022/12/20 10:59:27;;;;;;;3.53;1.77;;;;;;;9.86;100.00;101066.41;5134765;27;20716;-37
2022/12/20 11:01:52;;;;;;;4.32;2.05;;;;;;;9.83;100.00;101061.44;5134556;27;20507;-37
2022/12/20 11:04:26;;;;;;;4.20;2.25;;;;;;;9.88;100.00;101080.50;5134815;27;20031;-37
2022/12/20 11:06:52;;;;;;;4.45;2.38;;;;;;;9.85;100.00;101078.25;5134019;27;20055;-37
2022/12/20 11:09:29;;;;;;;5.35;1.83;;;;;;;9.83;100.00;101069.53;5134201;27;20063;-37
2022/12/20 11:12:15;;;;;;;4.25;2.40;;;;;;;9.83;100.00;101071.44;5115397;27;20076;-37
2022/12/20 11:14:45;;;;;;;6.30;2.70;;;;;;;9.69;100.00;101051.78;5134707;27;20100;-37
2022/12/20 11:17:14;;;;;;;4.85;2.40;;;;;;;9.77;100.00;101073.13;5115633;27;20291;-37
2022/12/20 11:19:56;;;;;;;3.35;2.20;;;;;;;9.78;100.00;101061.28;5134012;27;20059;-37
2022/12/20 11:22:48;;;;;;;5.75;2.53;;;;;;;9.69;100.00;101047.22;5116935;28;20023;-37
2022/12/20 11:25:13;;;;;;;5.18;2.70;;;;;;;9.68;100.00;101050.16;5133473;27;20211;-37
2022/12/20 11:27:53;;;;;;;4.53;2.57;;;;;;;9.76;100.00;101066.06;5133901;27;20111;-37
2022/12/20 11:30:26;;;;;;;4.03;2.60;;;;;;;9.76;100.00;101069.63;5133787;28;20027;-37
2022/12/20 11:33:07;;;;;;;3.88;2.55;;;;;;;9.71;100.00;101044.28;5133942;28;20027;-37
2022/12/20 11:35:35;;;;;;;3.33;1.92;;;;;;;9.79;100.00;101061.06;5133905;28;20035;-37
2022/12/20 11:38:34;;;;;;;5.75;3.05;;;;;;;9.69;100.00;101032.88;5141090;27;20375;-37
2022/12/20 11:41:18;;;;;;;4.82;2.25;;;;;;;9.80;100.00;101059.16;5154831;27;20027;-37